sensor_id;sensor_type;location;lat;lon;timestamp;P1;durP1;ratioP1;P2;durP2;ratioP2
173;SDS011;75;48.784;9.364;2023-06-26T00:00:27;14.93;;;9.30;;
173;SDS011;75;48.784;9.364;2023-06-26T00:02:53;14.93;;;10.10;;
173;SDS011;75;48.784;9.364;2023-06-26T00:05:19;15.73;;;10.20;;
173;SDS011;75;48.784;9.364;2023-06-26T00:07:45;15.43;;;9.97;;
173;SDS011;75;48.784;9.364;2023-06-26T00:10:11;14.00;;;9.43;;
173;SDS011;75;48.784;9.364;2023-06-26T00:12:37;14.10;;;9.60;;
173;SDS011;75;48.784;9.364;2023-06-26T00:15:03;13.90;;;9.97;;
173;SDS011;75;48.784;9.364;2023-06-26T00:17:29;13.20;;;9.50;;
173;SDS011;75;48.784;9.364;2023-06-26T00:19:55;14.30;;;10.03;;
173;SDS011;75;48.784;9.364;2023-06-26T00:22:21;14.40;;;9.50;;
173;SDS011;75;48.784;9.364;2023-06-26T00:24:47;14.67;;;9.90;;
173;SDS011;75;48.784;9.364;2023-06-26T00:27:13;15.20;;;10.57;;
173;SDS011;75;48.784;9.364;2023-06-26T00:29:39;15.43;;;10.60;;
173;SDS011;75;48.784;9.364;2023-06-26T00:32:06;15.33;;;9.53;;
173;SDS011;75;48.784;9.364;2023-06-26T00:34:32;14.20;;;10.53;;
173;SDS011;75;48.784;9.364;2023-06-26T00:36:58;12.90;;;9.73;;
173;SDS011;75;48.784;9.364;2023-06-26T00:39:25;15.67;;;10.10;;
173;SDS011;75;48.784;9.364;2023-06-26T00:41:51;13.30;;;9.93;;
173;SDS011;75;48.784;9.364;2023-06-26T00:44:20;14.80;;;10.57;;
173;SDS011;75;48.784;9.364;2023-06-26T00:46:46;14.77;;;10.00;;
173;SDS011;75;48.784;9.364;2023-06-26T00:49:12;14.47;;;9.83;;
173;SDS011;75;48.784;9.364;2023-06-26T00:51:38;14.23;;;9.97;;
173;SDS011;75;48.784;9.364;2023-06-26T00:54:04;12.93;;;9.57;;
173;SDS011;75;48.784;9.364;2023-06-26T00:56:31;14.43;;;9.87;;
173;SDS011;75;48.784;9.364;2023-06-26T00:58:57;14.63;;;10.47;;
173;SDS011;75;48.784;9.364;2023-06-26T01:01:23;14.67;;;10.37;;
173;SDS011;75;48.784;9.364;2023-06-26T01:03:50;14.20;;;10.00;;
173;SDS011;75;48.784;9.364;2023-06-26T01:06:17;15.87;;;10.70;;
173;SDS011;75;48.784;9.364;2023-06-26T01:08:43;13.53;;;9.77;;
173;SDS011;75;48.784;9.364;2023-06-26T01:11:10;13.30;;;9.70;;
173;SDS011;75;48.784;9.364;2023-06-26T01:13:36;17.60;;;12.00;;
173;SDS011;75;48.784;9.364;2023-06-26T01:16:02;15.57;;;10.50;;
173;SDS011;75;48.784;9.364;2023-06-26T01:18:29;14.37;;;9.70;;
173;SDS011;75;48.784;9.364;2023-06-26T01:20:56;14.13;;;10.43;;
173;SDS011;75;48.784;9.364;2023-06-26T01:23:35;15.20;;;10.30;;
173;SDS011;75;48.784;9.364;2023-06-26T01:26:21;15.67;;;10.23;;
173;SDS011;75;48.784;9.364;2023-06-26T01:28:48;15.43;;;10.67;;
173;SDS011;75;48.784;9.364;2023-06-26T01:31:15;14.60;;;10.60;;
173;SDS011;75;48.784;9.364;2023-06-26T01:33:41;16.77;;;11.10;;
173;SDS011;75;48.784;9.364;2023-06-26T01:36:08;14.37;;;10.37;;
173;SDS011;75;48.784;9.364;2023-06-26T01:38:34;15.10;;;10.70;;
173;SDS011;75;48.784;9.364;2023-06-26T01:41:01;15.43;;;10.20;;
173;SDS011;75;48.784;9.364;2023-06-26T01:45:54;15.50;;;10.20;;
173;SDS011;75;48.784;9.364;2023-06-26T01:48:23;15.10;;;10.33;;
173;SDS011;75;48.784;9.364;2023-06-26T01:50:50;14.13;;;10.43;;
173;SDS011;75;48.784;9.364;2023-06-26T01:53:17;15.10;;;10.47;;
173;SDS011;75;48.784;9.364;2023-06-26T01:58:09;14.80;;;10.60;;
173;SDS011;75;48.784;9.364;2023-06-26T02:00:36;14.93;;;10.80;;
173;SDS011;75;48.784;9.364;2023-06-26T02:03:02;15.80;;;10.47;;
173;SDS011;75;48.784;9.364;2023-06-26T02:05:30;15.30;;;10.73;;
173;SDS011;75;48.784;9.364;2023-06-26T02:07:56;14.73;;;9.63;;
173;SDS011;75;48.784;9.364;2023-06-26T02:10:22;16.97;;;10.90;;
173;SDS011;75;48.784;9.364;2023-06-26T02:12:48;13.40;;;9.50;;
173;SDS011;75;48.784;9.364;2023-06-26T02:15:14;13.80;;;10.20;;
173;SDS011;75;48.784;9.364;2023-06-26T02:17:40;16.77;;;11.00;;
173;SDS011;75;48.784;9.364;2023-06-26T02:20:06;18.40;;;10.90;;
173;SDS011;75;48.784;9.364;2023-06-26T02:22:34;14.33;;;10.43;;
173;SDS011;75;48.784;9.364;2023-06-26T02:25:00;14.97;;;10.50;;
173;SDS011;75;48.784;9.364;2023-06-26T02:27:26;16.80;;;10.23;;
173;SDS011;75;48.784;9.364;2023-06-26T02:29:52;16.27;;;10.70;;
173;SDS011;75;48.784;9.364;2023-06-26T02:32:18;14.57;;;10.40;;
173;SDS011;75;48.784;9.364;2023-06-26T02:34:43;16.27;;;10.87;;
173;SDS011;75;48.784;9.364;2023-06-26T02:37:09;17.03;;;10.50;;
173;SDS011;75;48.784;9.364;2023-06-26T02:39:35;17.23;;;10.77;;
173;SDS011;75;48.784;9.364;2023-06-26T02:42:01;14.33;;;10.23;;
173;SDS011;75;48.784;9.364;2023-06-26T02:44:27;17.40;;;10.70;;
173;SDS011;75;48.784;9.364;2023-06-26T02:46:53;14.87;;;10.17;;
173;SDS011;75;48.784;9.364;2023-06-26T02:49:19;17.17;;;11.23;;
173;SDS011;75;48.784;9.364;2023-06-26T02:51:45;15.63;;;10.83;;
173;SDS011;75;48.784;9.364;2023-06-26T02:54:11;13.00;;;9.30;;
173;SDS011;75;48.784;9.364;2023-06-26T02:56:37;14.13;;;9.77;;
173;SDS011;75;48.784;9.364;2023-06-26T02:59:03;15.43;;;10.30;;
173;SDS011;75;48.784;9.364;2023-06-26T03:01:29;15.00;;;10.37;;
173;SDS011;75;48.784;9.364;2023-06-26T03:03:55;13.83;;;10.30;;
173;SDS011;75;48.784;9.364;2023-06-26T03:06:21;15.80;;;10.70;;
173;SDS011;75;48.784;9.364;2023-06-26T03:08:47;15.47;;;10.40;;
173;SDS011;75;48.784;9.364;2023-06-26T03:11:13;15.50;;;10.87;;
173;SDS011;75;48.784;9.364;2023-06-26T03:13:39;15.23;;;10.33;;
173;SDS011;75;48.784;9.364;2023-06-26T03:16:05;15.70;;;10.80;;
173;SDS011;75;48.784;9.364;2023-06-26T03:18:31;13.90;;;10.47;;
173;SDS011;75;48.784;9.364;2023-06-26T03:20:57;16.10;;;10.77;;
173;SDS011;75;48.784;9.364;2023-06-26T03:23:23;14.13;;;9.80;;
173;SDS011;75;48.784;9.364;2023-06-26T03:25:50;14.60;;;9.80;;
173;SDS011;75;48.784;9.364;2023-06-26T03:28:16;15.53;;;10.10;;
173;SDS011;75;48.784;9.364;2023-06-26T03:30:42;15.30;;;9.60;;
173;SDS011;75;48.784;9.364;2023-06-26T03:33:08;15.13;;;9.87;;
173;SDS011;75;48.784;9.364;2023-06-26T03:35:34;14.50;;;9.57;;
173;SDS011;75;48.784;9.364;2023-06-26T03:38:00;16.00;;;10.77;;
173;SDS011;75;48.784;9.364;2023-06-26T03:40:26;15.30;;;10.90;;
173;SDS011;75;48.784;9.364;2023-06-26T03:42:52;19.30;;;12.67;;
173;SDS011;75;48.784;9.364;2023-06-26T03:45:18;16.13;;;12.00;;
173;SDS011;75;48.784;9.364;2023-06-26T03:47:45;18.03;;;12.87;;
173;SDS011;75;48.784;9.364;2023-06-26T03:50:15;16.80;;;12.40;;
173;SDS011;75;48.784;9.364;2023-06-26T03:52:41;17.40;;;13.20;;
173;SDS011;75;48.784;9.364;2023-06-26T03:55:07;19.40;;;12.20;;
173;SDS011;75;48.784;9.364;2023-06-26T03:57:33;17.37;;;12.00;;
173;SDS011;75;48.784;9.364;2023-06-26T03:59:59;15.43;;;11.03;;
173;SDS011;75;48.784;9.364;2023-06-26T04:02:25;16.50;;;10.57;;
173;SDS011;75;48.784;9.364;2023-06-26T04:04:51;13.20;;;9.47;;
173;SDS011;75;48.784;9.364;2023-06-26T04:07:18;14.27;;;10.03;;
173;SDS011;75;48.784;9.364;2023-06-26T04:09:44;14.90;;;10.43;;
173;SDS011;75;48.784;9.364;2023-06-26T04:12:10;14.90;;;10.60;;
173;SDS011;75;48.784;9.364;2023-06-26T04:14:36;15.20;;;10.47;;
173;SDS011;75;48.784;9.364;2023-06-26T04:17:02;14.57;;;10.27;;
173;SDS011;75;48.784;9.364;2023-06-26T04:19:31;15.67;;;10.90;;
173;SDS011;75;48.784;9.364;2023-06-26T04:21:57;16.90;;;11.07;;
173;SDS011;75;48.784;9.364;2023-06-26T04:24:23;14.80;;;10.33;;
173;SDS011;75;48.784;9.364;2023-06-26T04:26:50;16.70;;;9.80;;
173;SDS011;75;48.784;9.364;2023-06-26T04:29:16;15.10;;;11.00;;
173;SDS011;75;48.784;9.364;2023-06-26T04:31:42;15.10;;;10.83;;
173;SDS011;75;48.784;9.364;2023-06-26T04:34:11;14.33;;;10.27;;
173;SDS011;75;48.784;9.364;2023-06-26T04:36:37;23.03;;;11.47;;
173;SDS011;75;48.784;9.364;2023-06-26T04:39:04;13.73;;;9.83;;
173;SDS011;75;48.784;9.364;2023-06-26T04:41:31;20.93;;;11.67;;
173;SDS011;75;48.784;9.364;2023-06-26T04:43:57;14.37;;;10.00;;
173;SDS011;75;48.784;9.364;2023-06-26T04:46:23;13.20;;;9.50;;
173;SDS011;75;48.784;9.364;2023-06-26T04:48:49;12.17;;;9.20;;
173;SDS011;75;48.784;9.364;2023-06-26T04:51:15;13.70;;;9.33;;
173;SDS011;75;48.784;9.364;2023-06-26T04:53:41;14.73;;;10.40;;
173;SDS011;75;48.784;9.364;2023-06-26T04:56:07;14.43;;;10.23;;
173;SDS011;75;48.784;9.364;2023-06-26T04:58:34;14.00;;;9.97;;
173;SDS011;75;48.784;9.364;2023-06-26T05:01:00;14.70;;;10.20;;
173;SDS011;75;48.784;9.364;2023-06-26T05:03:25;13.10;;;9.77;;
173;SDS011;75;48.784;9.364;2023-06-26T05:05:51;12.60;;;9.57;;
173;SDS011;75;48.784;9.364;2023-06-26T05:08:20;13.90;;;10.00;;
173;SDS011;75;48.784;9.364;2023-06-26T05:10:46;13.17;;;9.40;;
173;SDS011;75;48.784;9.364;2023-06-26T05:13:12;11.10;;;9.10;;
173;SDS011;75;48.784;9.364;2023-06-26T05:15:42;13.20;;;9.10;;
173;SDS011;75;48.784;9.364;2023-06-26T05:18:08;12.80;;;9.80;;
173;SDS011;75;48.784;9.364;2023-06-26T05:20:34;12.47;;;9.50;;
173;SDS011;75;48.784;9.364;2023-06-26T05:23:04;12.40;;;9.40;;
173;SDS011;75;48.784;9.364;2023-06-26T05:25:30;12.00;;;9.13;;
173;SDS011;75;48.784;9.364;2023-06-26T05:27:57;12.47;;;9.57;;
173;SDS011;75;48.784;9.364;2023-06-26T05:30:24;12.57;;;9.23;;
173;SDS011;75;48.784;9.364;2023-06-26T05:32:50;11.40;;;9.00;;
173;SDS011;75;48.784;9.364;2023-06-26T05:35:17;11.97;;;9.03;;
173;SDS011;75;48.784;9.364;2023-06-26T05:37:43;13.10;;;9.80;;
173;SDS011;75;48.784;9.364;2023-06-26T05:40:10;10.53;;;8.73;;
173;SDS011;75;48.784;9.364;2023-06-26T05:42:36;12.00;;;9.57;;
173;SDS011;75;48.784;9.364;2023-06-26T05:45:02;12.03;;;9.20;;
173;SDS011;75;48.784;9.364;2023-06-26T05:47:28;12.73;;;10.20;;
173;SDS011;75;48.784;9.364;2023-06-26T05:49:54;13.77;;;9.50;;
173;SDS011;75;48.784;9.364;2023-06-26T05:52:20;12.20;;;9.57;;
173;SDS011;75;48.784;9.364;2023-06-26T05:54:46;12.40;;;9.30;;
173;SDS011;75;48.784;9.364;2023-06-26T05:57:12;13.37;;;9.80;;
173;SDS011;75;48.784;9.364;2023-06-26T05:59:39;12.50;;;9.93;;
173;SDS011;75;48.784;9.364;2023-06-26T06:02:06;12.07;;;9.33;;
173;SDS011;75;48.784;9.364;2023-06-26T06:04:32;13.87;;;9.77;;
173;SDS011;75;48.784;9.364;2023-06-26T06:06:59;12.13;;;9.30;;
173;SDS011;75;48.784;9.364;2023-06-26T06:09:25;13.60;;;9.77;;
173;SDS011;75;48.784;9.364;2023-06-26T06:11:51;13.20;;;9.40;;
173;SDS011;75;48.784;9.364;2023-06-26T06:14:17;12.43;;;9.03;;
173;SDS011;75;48.784;9.364;2023-06-26T06:16:43;12.50;;;9.60;;
173;SDS011;75;48.784;9.364;2023-06-26T06:19:09;13.00;;;9.07;;
173;SDS011;75;48.784;9.364;2023-06-26T06:21:37;11.20;;;8.73;;
173;SDS011;75;48.784;9.364;2023-06-26T06:24:04;11.40;;;8.83;;
173;SDS011;75;48.784;9.364;2023-06-26T06:26:30;12.10;;;9.07;;
173;SDS011;75;48.784;9.364;2023-06-26T06:28:56;10.23;;;8.80;;
173;SDS011;75;48.784;9.364;2023-06-26T06:31:21;13.83;;;10.27;;
173;SDS011;75;48.784;9.364;2023-06-26T06:33:47;15.10;;;9.70;;
173;SDS011;75;48.784;9.364;2023-06-26T06:36:13;11.80;;;8.63;;
173;SDS011;75;48.784;9.364;2023-06-26T06:38:42;16.70;;;9.63;;
173;SDS011;75;48.784;9.364;2023-06-26T06:41:09;11.87;;;8.90;;
173;SDS011;75;48.784;9.364;2023-06-26T06:43:34;18.60;;;13.07;;
173;SDS011;75;48.784;9.364;2023-06-26T06:46:01;19.07;;;12.50;;
173;SDS011;75;48.784;9.364;2023-06-26T06:48:27;12.90;;;9.63;;
173;SDS011;75;48.784;9.364;2023-06-26T06:50:53;12.10;;;9.50;;
173;SDS011;75;48.784;9.364;2023-06-26T06:53:19;11.60;;;9.20;;
173;SDS011;75;48.784;9.364;2023-06-26T06:55:48;13.10;;;9.30;;
173;SDS011;75;48.784;9.364;2023-06-26T06:58:14;13.80;;;9.40;;
173;SDS011;75;48.784;9.364;2023-06-26T07:00:42;11.80;;;9.60;;
173;SDS011;75;48.784;9.364;2023-06-26T07:03:08;13.20;;;9.50;;
173;SDS011;75;48.784;9.364;2023-06-26T07:05:35;11.63;;;8.80;;
173;SDS011;75;48.784;9.364;2023-06-26T07:08:01;13.60;;;9.33;;
173;SDS011;75;48.784;9.364;2023-06-26T07:10:27;11.20;;;9.20;;
173;SDS011;75;48.784;9.364;2023-06-26T07:12:53;13.00;;;9.43;;
173;SDS011;75;48.784;9.364;2023-06-26T07:15:19;12.83;;;10.10;;
173;SDS011;75;48.784;9.364;2023-06-26T07:17:45;13.50;;;10.23;;
173;SDS011;75;48.784;9.364;2023-06-26T07:20:11;14.50;;;9.80;;
173;SDS011;75;48.784;9.364;2023-06-26T07:22:40;14.57;;;9.43;;
173;SDS011;75;48.784;9.364;2023-06-26T07:25:06;10.40;;;8.80;;
173;SDS011;75;48.784;9.364;2023-06-26T07:27:36;11.70;;;9.00;;
173;SDS011;75;48.784;9.364;2023-06-26T07:30:02;12.30;;;9.53;;
173;SDS011;75;48.784;9.364;2023-06-26T07:32:28;13.67;;;9.80;;
173;SDS011;75;48.784;9.364;2023-06-26T07:34:54;11.27;;;8.50;;
173;SDS011;75;48.784;9.364;2023-06-26T07:37:20;13.90;;;10.37;;
173;SDS011;75;48.784;9.364;2023-06-26T07:39:47;11.93;;;9.53;;
173;SDS011;75;48.784;9.364;2023-06-26T07:42:13;14.40;;;9.43;;
173;SDS011;75;48.784;9.364;2023-06-26T07:44:39;12.80;;;9.47;;
173;SDS011;75;48.784;9.364;2023-06-26T07:47:05;12.07;;;9.40;;
173;SDS011;75;48.784;9.364;2023-06-26T07:49:31;13.43;;;9.90;;
173;SDS011;75;48.784;9.364;2023-06-26T07:51:57;16.40;;;10.20;;
173;SDS011;75;48.784;9.364;2023-06-26T07:54:23;13.40;;;10.00;;
173;SDS011;75;48.784;9.364;2023-06-26T07:56:55;13.70;;;9.67;;
173;SDS011;75;48.784;9.364;2023-06-26T07:59:22;11.80;;;9.30;;
173;SDS011;75;48.784;9.364;2023-06-26T08:01:49;13.13;;;9.87;;
173;SDS011;75;48.784;9.364;2023-06-26T08:04:15;12.40;;;9.03;;
173;SDS011;75;48.784;9.364;2023-06-26T08:06:41;13.07;;;9.70;;
173;SDS011;75;48.784;9.364;2023-06-26T08:09:07;17.00;;;10.17;;
173;SDS011;75;48.784;9.364;2023-06-26T08:11:33;14.00;;;10.43;;
173;SDS011;75;48.784;9.364;2023-06-26T08:13:59;13.13;;;10.00;;
173;SDS011;75;48.784;9.364;2023-06-26T08:16:25;14.77;;;10.30;;
173;SDS011;75;48.784;9.364;2023-06-26T08:18:51;12.23;;;10.30;;
173;SDS011;75;48.784;9.364;2023-06-26T08:21:17;12.47;;;9.77;;
173;SDS011;75;48.784;9.364;2023-06-26T08:23:43;15.37;;;9.60;;
173;SDS011;75;48.784;9.364;2023-06-26T08:26:09;14.47;;;9.57;;
173;SDS011;75;48.784;9.364;2023-06-26T08:28:35;15.23;;;10.30;;
173;SDS011;75;48.784;9.364;2023-06-26T08:31:01;14.13;;;9.80;;
173;SDS011;75;48.784;9.364;2023-06-26T08:33:27;12.17;;;9.60;;
173;SDS011;75;48.784;9.364;2023-06-26T08:35:53;12.53;;;9.33;;
173;SDS011;75;48.784;9.364;2023-06-26T08:38:19;15.60;;;9.70;;
173;SDS011;75;48.784;9.364;2023-06-26T08:40:46;13.87;;;9.77;;
173;SDS011;75;48.784;9.364;2023-06-26T08:43:12;14.83;;;10.50;;
173;SDS011;75;48.784;9.364;2023-06-26T08:45:38;11.93;;;8.47;;
173;SDS011;75;48.784;9.364;2023-06-26T08:48:04;14.20;;;9.80;;
173;SDS011;75;48.784;9.364;2023-06-26T08:50:32;11.67;;;9.60;;
173;SDS011;75;48.784;9.364;2023-06-26T08:53:09;12.83;;;8.60;;
173;SDS011;75;48.784;9.364;2023-06-26T08:55:41;13.80;;;8.93;;
173;SDS011;75;48.784;9.364;2023-06-26T08:58:07;15.43;;;9.00;;
173;SDS011;75;48.784;9.364;2023-06-26T09:00:33;13.07;;;9.73;;
173;SDS011;75;48.784;9.364;2023-06-26T09:02:59;12.50;;;9.07;;
173;SDS011;75;48.784;9.364;2023-06-26T09:05:25;10.90;;;8.80;;
173;SDS011;75;48.784;9.364;2023-06-26T09:07:57;16.57;;;9.40;;
173;SDS011;75;48.784;9.364;2023-06-26T09:10:23;13.03;;;9.53;;
173;SDS011;75;48.784;9.364;2023-06-26T09:12:49;12.97;;;9.20;;
173;SDS011;75;48.784;9.364;2023-06-26T09:15:16;14.63;;;10.20;;
173;SDS011;75;48.784;9.364;2023-06-26T09:17:44;15.90;;;9.70;;
173;SDS011;75;48.784;9.364;2023-06-26T09:20:10;15.13;;;10.13;;
173;SDS011;75;48.784;9.364;2023-06-26T09:22:40;14.93;;;9.53;;
173;SDS011;75;48.784;9.364;2023-06-26T09:25:06;16.23;;;10.23;;
173;SDS011;75;48.784;9.364;2023-06-26T09:27:33;13.33;;;9.07;;
173;SDS011;75;48.784;9.364;2023-06-26T09:29:59;11.67;;;8.67;;
173;SDS011;75;48.784;9.364;2023-06-26T09:32:25;12.43;;;9.40;;
173;SDS011;75;48.784;9.364;2023-06-26T09:34:54;12.40;;;9.10;;
173;SDS011;75;48.784;9.364;2023-06-26T09:37:25;9.80;;;8.70;;
173;SDS011;75;48.784;9.364;2023-06-26T09:39:51;14.17;;;8.70;;
173;SDS011;75;48.784;9.364;2023-06-26T09:42:17;14.63;;;8.93;;
173;SDS011;75;48.784;9.364;2023-06-26T09:44:44;10.63;;;8.40;;
173;SDS011;75;48.784;9.364;2023-06-26T09:47:10;15.00;;;8.40;;
173;SDS011;75;48.784;9.364;2023-06-26T09:49:37;9.53;;;7.00;;
173;SDS011;75;48.784;9.364;2023-06-26T09:52:06;11.70;;;9.00;;
173;SDS011;75;48.784;9.364;2023-06-26T09:54:32;12.30;;;9.50;;
173;SDS011;75;48.784;9.364;2023-06-26T09:57:08;14.50;;;8.90;;
173;SDS011;75;48.784;9.364;2023-06-26T09:59:34;17.93;;;9.10;;
173;SDS011;75;48.784;9.364;2023-06-26T10:02:00;14.23;;;9.10;;
173;SDS011;75;48.784;9.364;2023-06-26T10:04:27;12.53;;;8.70;;
173;SDS011;75;48.784;9.364;2023-06-26T10:06:56;15.40;;;9.30;;
173;SDS011;75;48.784;9.364;2023-06-26T10:09:22;14.90;;;9.83;;
173;SDS011;75;48.784;9.364;2023-06-26T10:12:02;14.00;;;9.57;;
173;SDS011;75;48.784;9.364;2023-06-26T10:14:33;13.17;;;8.37;;
173;SDS011;75;48.784;9.364;2023-06-26T10:16:59;17.10;;;9.30;;
173;SDS011;75;48.784;9.364;2023-06-26T10:19:27;10.30;;;8.20;;
173;SDS011;75;48.784;9.364;2023-06-26T10:21:54;12.13;;;8.13;;
173;SDS011;75;48.784;9.364;2023-06-26T10:24:23;10.40;;;8.50;;
173;SDS011;75;48.784;9.364;2023-06-26T10:26:49;13.90;;;8.30;;
173;SDS011;75;48.784;9.364;2023-06-26T10:29:16;14.23;;;8.67;;
173;SDS011;75;48.784;9.364;2023-06-26T10:31:48;13.77;;;9.40;;
173;SDS011;75;48.784;9.364;2023-06-26T10:34:15;16.30;;;9.50;;
173;SDS011;75;48.784;9.364;2023-06-26T10:36:41;13.83;;;9.13;;
173;SDS011;75;48.784;9.364;2023-06-26T10:39:07;15.43;;;8.47;;
173;SDS011;75;48.784;9.364;2023-06-26T10:41:40;14.30;;;9.47;;
173;SDS011;75;48.784;9.364;2023-06-26T10:44:10;14.60;;;9.40;;
173;SDS011;75;48.784;9.364;2023-06-26T10:47:09;14.17;;;9.73;;
173;SDS011;75;48.784;9.364;2023-06-26T10:49:29;13.47;;;9.50;;
173;SDS011;75;48.784;9.364;2023-06-26T10:51:55;12.17;;;9.40;;
173;SDS011;75;48.784;9.364;2023-06-26T10:54:27;16.40;;;9.60;;
173;SDS011;75;48.784;9.364;2023-06-26T10:56:54;17.43;;;9.17;;
173;SDS011;75;48.784;9.364;2023-06-26T10:59:25;16.93;;;9.20;;
173;SDS011;75;48.784;9.364;2023-06-26T11:07:14;15.07;;;9.43;;
173;SDS011;75;48.784;9.364;2023-06-26T11:09:54;12.63;;;9.90;;
173;SDS011;75;48.784;9.364;2023-06-26T11:12:33;19.40;;;10.33;;
173;SDS011;75;48.784;9.364;2023-06-26T11:15:00;14.93;;;9.33;;
173;SDS011;75;48.784;9.364;2023-06-26T11:17:26;19.60;;;10.00;;
173;SDS011;75;48.784;9.364;2023-06-26T11:19:53;15.63;;;10.03;;
173;SDS011;75;48.784;9.364;2023-06-26T11:22:20;14.03;;;10.37;;
173;SDS011;75;48.784;9.364;2023-06-26T11:24:47;15.03;;;9.67;;
173;SDS011;75;48.784;9.364;2023-06-26T11:27:14;11.77;;;10.00;;
173;SDS011;75;48.784;9.364;2023-06-26T11:29:46;12.97;;;9.50;;
173;SDS011;75;48.784;9.364;2023-06-26T11:32:13;11.40;;;9.57;;
173;SDS011;75;48.784;9.364;2023-06-26T11:34:39;18.13;;;10.07;;
173;SDS011;75;48.784;9.364;2023-06-26T11:37:06;12.90;;;9.53;;
173;SDS011;75;48.784;9.364;2023-06-26T11:39:32;13.80;;;9.53;;
173;SDS011;75;48.784;9.364;2023-06-26T11:41:59;13.13;;;9.97;;
173;SDS011;75;48.784;9.364;2023-06-26T11:44:25;12.63;;;9.57;;
173;SDS011;75;48.784;9.364;2023-06-26T11:46:54;13.77;;;9.80;;
173;SDS011;75;48.784;9.364;2023-06-26T11:49:22;16.10;;;9.90;;
173;SDS011;75;48.784;9.364;2023-06-26T11:51:50;13.83;;;9.90;;
173;SDS011;75;48.784;9.364;2023-06-26T11:54:22;14.20;;;9.30;;
173;SDS011;75;48.784;9.364;2023-06-26T11:56:52;14.53;;;11.03;;
173;SDS011;75;48.784;9.364;2023-06-26T11:59:18;10.33;;;9.20;;
173;SDS011;75;48.784;9.364;2023-06-26T12:01:44;12.40;;;9.43;;
173;SDS011;75;48.784;9.364;2023-06-26T12:04:11;14.47;;;9.60;;
173;SDS011;75;48.784;9.364;2023-06-26T12:06:38;15.47;;;9.50;;
173;SDS011;75;48.784;9.364;2023-06-26T12:09:05;14.90;;;10.40;;
173;SDS011;75;48.784;9.364;2023-06-26T12:11:31;14.03;;;9.20;;
173;SDS011;75;48.784;9.364;2023-06-26T12:13:58;13.30;;;9.20;;
173;SDS011;75;48.784;9.364;2023-06-26T12:16:24;13.50;;;9.23;;
173;SDS011;75;48.784;9.364;2023-06-26T12:18:50;13.77;;;10.10;;
173;SDS011;75;48.784;9.364;2023-06-26T12:23:59;14.57;;;9.33;;
173;SDS011;75;48.784;9.364;2023-06-26T12:26:25;12.40;;;9.97;;
173;SDS011;75;48.784;9.364;2023-06-26T12:28:51;17.07;;;9.87;;
173;SDS011;75;48.784;9.364;2023-06-26T12:31:20;15.43;;;9.50;;
173;SDS011;75;48.784;9.364;2023-06-26T12:33:47;13.27;;;9.30;;
173;SDS011;75;48.784;9.364;2023-06-26T12:36:13;15.93;;;9.47;;
173;SDS011;75;48.784;9.364;2023-06-26T12:38:40;11.60;;;9.47;;
173;SDS011;75;48.784;9.364;2023-06-26T12:41:11;15.90;;;10.10;;
173;SDS011;75;48.784;9.364;2023-06-26T12:43:38;12.00;;;9.50;;
173;SDS011;75;48.784;9.364;2023-06-26T12:46:05;13.70;;;9.30;;
173;SDS011;75;48.784;9.364;2023-06-26T12:48:37;12.50;;;9.03;;
173;SDS011;75;48.784;9.364;2023-06-26T12:51:09;12.80;;;9.70;;
173;SDS011;75;48.784;9.364;2023-06-26T12:53:35;13.00;;;9.03;;
173;SDS011;75;48.784;9.364;2023-06-26T12:56:01;14.27;;;9.40;;
173;SDS011;75;48.784;9.364;2023-06-26T12:58:27;13.90;;;9.70;;
173;SDS011;75;48.784;9.364;2023-06-26T13:00:53;14.37;;;10.13;;
173;SDS011;75;48.784;9.364;2023-06-26T13:03:19;12.50;;;9.70;;
173;SDS011;75;48.784;9.364;2023-06-26T13:05:48;13.80;;;9.73;;
173;SDS011;75;48.784;9.364;2023-06-26T13:08:13;14.33;;;10.00;;
173;SDS011;75;48.784;9.364;2023-06-26T13:10:42;13.13;;;9.27;;
173;SDS011;75;48.784;9.364;2023-06-26T13:13:10;13.37;;;9.30;;
173;SDS011;75;48.784;9.364;2023-06-26T13:15:36;14.80;;;9.90;;
173;SDS011;75;48.784;9.364;2023-06-26T13:18:02;12.60;;;9.40;;
173;SDS011;75;48.784;9.364;2023-06-26T13:20:28;18.70;;;10.30;;
173;SDS011;75;48.784;9.364;2023-06-26T13:22:55;13.57;;;9.60;;
173;SDS011;75;48.784;9.364;2023-06-26T13:25:21;10.77;;;9.03;;
173;SDS011;75;48.784;9.364;2023-06-26T13:27:47;11.97;;;9.20;;
173;SDS011;75;48.784;9.364;2023-06-26T13:30:14;13.77;;;8.87;;
173;SDS011;75;48.784;9.364;2023-06-26T13:32:40;14.27;;;8.90;;
173;SDS011;75;48.784;9.364;2023-06-26T13:35:07;11.57;;;9.40;;
173;SDS011;75;48.784;9.364;2023-06-26T13:37:33;13.13;;;8.60;;
173;SDS011;75;48.784;9.364;2023-06-26T13:39:59;17.23;;;8.90;;
173;SDS011;75;48.784;9.364;2023-06-26T13:42:26;15.53;;;8.97;;
173;SDS011;75;48.784;9.364;2023-06-26T13:44:52;16.83;;;8.50;;
173;SDS011;75;48.784;9.364;2023-06-26T13:47:18;15.00;;;8.60;;
173;SDS011;75;48.784;9.364;2023-06-26T13:49:44;13.73;;;8.17;;
173;SDS011;75;48.784;9.364;2023-06-26T13:52:10;12.80;;;8.23;;
173;SDS011;75;48.784;9.364;2023-06-26T13:54:36;13.73;;;8.03;;
173;SDS011;75;48.784;9.364;2023-06-26T13:57:06;10.17;;;8.10;;
173;SDS011;75;48.784;9.364;2023-06-26T13:59:33;12.90;;;8.70;;
173;SDS011;75;48.784;9.364;2023-06-26T14:01:59;12.57;;;8.53;;
173;SDS011;75;48.784;9.364;2023-06-26T14:04:25;10.57;;;7.60;;
173;SDS011;75;48.784;9.364;2023-06-26T14:06:52;13.47;;;7.33;;
173;SDS011;75;48.784;9.364;2023-06-26T14:09:18;12.13;;;7.83;;
173;SDS011;75;48.784;9.364;2023-06-26T14:11:44;14.33;;;7.50;;
173;SDS011;75;48.784;9.364;2023-06-26T14:14:10;10.50;;;7.40;;
173;SDS011;75;48.784;9.364;2023-06-26T14:16:36;14.53;;;7.20;;
173;SDS011;75;48.784;9.364;2023-06-26T14:19:02;11.77;;;7.27;;
173;SDS011;75;48.784;9.364;2023-06-26T14:21:28;12.83;;;6.73;;
173;SDS011;75;48.784;9.364;2023-06-26T14:23:57;11.63;;;7.00;;
173;SDS011;75;48.784;9.364;2023-06-26T14:26:23;16.43;;;6.63;;
173;SDS011;75;48.784;9.364;2023-06-26T14:28:49;11.73;;;6.40;;
173;SDS011;75;48.784;9.364;2023-06-26T14:31:15;9.70;;;6.90;;
173;SDS011;75;48.784;9.364;2023-06-26T14:33:41;14.00;;;7.37;;
173;SDS011;75;48.784;9.364;2023-06-26T14:36:07;8.00;;;5.97;;
173;SDS011;75;48.784;9.364;2023-06-26T14:38:32;9.67;;;6.43;;
173;SDS011;75;48.784;9.364;2023-06-26T14:40:58;9.97;;;6.23;;
173;SDS011;75;48.784;9.364;2023-06-26T14:43:24;13.03;;;6.67;;
173;SDS011;75;48.784;9.364;2023-06-26T14:45:50;8.23;;;5.40;;
173;SDS011;75;48.784;9.364;2023-06-26T14:48:16;9.60;;;6.10;;
173;SDS011;75;48.784;9.364;2023-06-26T14:50:44;7.53;;;5.67;;
173;SDS011;75;48.784;9.364;2023-06-26T14:53:10;11.90;;;5.30;;
173;SDS011;75;48.784;9.364;2023-06-26T14:55:36;9.37;;;5.40;;
173;SDS011;75;48.784;9.364;2023-06-26T14:58:02;7.77;;;5.20;;
173;SDS011;75;48.784;9.364;2023-06-26T15:00:28;14.00;;;6.00;;
173;SDS011;75;48.784;9.364;2023-06-26T15:02:54;9.60;;;5.23;;
173;SDS011;75;48.784;9.364;2023-06-26T15:05:20;7.43;;;5.20;;
173;SDS011;75;48.784;9.364;2023-06-26T15:07:47;8.80;;;5.43;;
173;SDS011;75;48.784;9.364;2023-06-26T15:10:13;11.17;;;4.80;;
173;SDS011;75;48.784;9.364;2023-06-26T15:12:39;8.37;;;5.60;;
173;SDS011;75;48.784;9.364;2023-06-26T15:15:05;9.00;;;5.53;;
173;SDS011;75;48.784;9.364;2023-06-26T15:17:32;8.77;;;6.00;;
173;SDS011;75;48.784;9.364;2023-06-26T15:19:58;9.80;;;6.30;;
173;SDS011;75;48.784;9.364;2023-06-26T15:22:25;7.40;;;5.10;;
173;SDS011;75;48.784;9.364;2023-06-26T15:24:52;7.93;;;5.40;;
173;SDS011;75;48.784;9.364;2023-06-26T15:27:18;10.50;;;5.17;;
173;SDS011;75;48.784;9.364;2023-06-26T15:29:44;8.17;;;5.10;;
173;SDS011;75;48.784;9.364;2023-06-26T15:32:10;8.23;;;5.73;;
173;SDS011;75;48.784;9.364;2023-06-26T15:34:36;9.43;;;6.20;;
173;SDS011;75;48.784;9.364;2023-06-26T15:37:02;7.97;;;5.50;;
173;SDS011;75;48.784;9.364;2023-06-26T15:39:28;9.50;;;6.10;;
173;SDS011;75;48.784;9.364;2023-06-26T15:41:54;9.07;;;6.20;;
173;SDS011;75;48.784;9.364;2023-06-26T15:44:20;11.23;;;6.03;;
173;SDS011;75;48.784;9.364;2023-06-26T15:46:46;9.93;;;5.90;;
173;SDS011;75;48.784;9.364;2023-06-26T15:49:12;9.60;;;6.20;;
173;SDS011;75;48.784;9.364;2023-06-26T15:51:38;11.13;;;6.77;;